»·PEaware :: N701DB KAPA-KMRY

N701DB :: KAPA-KMRY

FLIGHT INFORMATION

Flight Status: Arrived
Operator: Privately registered:
United States
More flights under this callsign
Pilot: Ryan B. (8502)
Aircraft: GULFSTREAM G-1159C GULFSTREAM 4
(GLF4)
More flights by this aircraft type
Origin: KAPA Centennial
United States
Destination: KMRY Monterey Peninsula
United States
More flights between these airports :: More routes between these airports
Route: +CONNR4 DBL JNC J80 OAL PXN SNS
File this flight plan on PilotEdge
Remarks:
Altitude:
(Current/Filed)
36,000ft
Speed:
(Current/Filed)
486kts
Departed: 02-Nov-17 01:36 PM
Arrived: 02-Nov-17 03:39 PM
Distance/Time
Traveled:
821nm/2:03
Distance/Time
To Go:
Arrived

Flight Plot

Page will automatically refresh every two minutes.

Flight plan parsing failed; only flown route is shown


Map Options




Map Legend


Flown Route
Filed Route
Departure Airport
Arrival Airport
Navaid (VOR, NDB)
Fix

Horizontal Profiles

Position Reports

Time Latitude Longitude Heading Altitude Ground
Speed
02-Nov-17 13:26 39.579201 -104.848770 90 5808ft 0kts
02-Nov-17 13:27 39.579201 -104.848770 90 5808ft 0kts
02-Nov-17 13:28 39.579201 -104.848770 90 5808ft 0kts
02-Nov-17 13:29 39.579201 -104.848770 90 5808ft 0kts
02-Nov-17 13:30 39.579201 -104.848770 90 5808ft 0kts
02-Nov-17 13:31 39.579201 -104.848770 90 5808ft 0kts
02-Nov-17 13:32 39.579201 -104.848770 90 5808ft 0kts
02-Nov-17 13:33 39.579201 -104.848770 90 5808ft 0kts
02-Nov-17 13:34 39.579201 -104.848770 90 5808ft 0kts
02-Nov-17 13:35 39.578464 -104.848925 200 5812ft 5kts
02-Nov-17 13:36 39.576408 -104.849710 180 5821ft 14kts
02-Nov-17 13:37 39.571016 -104.849450 178 5836ft 13kts
02-Nov-17 13:38 39.566805 -104.849272 177 5857ft 9kts
02-Nov-17 13:39 39.559876 -104.848946 177 5865ft 30kts
02-Nov-17 13:40 39.556895 -104.850239 330 5866ft 2kts
02-Nov-17 13:41 39.592567 -104.856521 332 7660ft 244kts
02-Nov-17 13:42 39.632322 -104.933658 298 7996ft 274kts
02-Nov-17 13:43 39.669270 -105.018454 298 11000ft 317kts
02-Nov-17 13:44 39.697840 -105.105754 272 14325ft 325kts
02-Nov-17 13:45 39.698616 -105.223281 269 18370ft 341kts
02-Nov-17 13:46 39.699199 -105.346827 270 22145ft 355kts
02-Nov-17 13:47 39.699474 -105.476125 270 25329ft 369kts
02-Nov-17 13:48 39.699323 -105.611176 270 28104ft 382kts
02-Nov-17 13:49 39.689871 -105.748193 263 30426ft 396kts
02-Nov-17 13:50 39.674321 -105.890440 262 32433ft 407kts
02-Nov-17 13:51 39.658093 -106.035223 262 34272ft 402kts
02-Nov-17 13:52 39.642307 -106.174731 263 36102ft 407kts
02-Nov-17 13:53 39.620426 -106.325919 253 36172ft 442kts
02-Nov-17 13:54 39.575077 -106.474140 250 36109ft 447kts
02-Nov-17 13:55 39.527835 -106.621460 250 36062ft 447kts
02-Nov-17 13:56 39.480585 -106.767812 250 36082ft 447kts
02-Nov-17 13:57 39.436305 -106.916154 256 36089ft 444kts
02-Nov-17 13:58 39.406020 -107.069098 257 36080ft 443kts
02-Nov-17 13:59 39.376319 -107.222433 257 36081ft 443kts
02-Nov-17 14:00 39.346466 -107.375593 257 36066ft 443kts
02-Nov-17 14:01 39.316416 -107.528802 257 36028ft 443kts
02-Nov-17 14:02 39.286331 -107.680693 257 36327ft 437kts
02-Nov-17 14:03 39.257030 -107.827845 257 38017ft 427kts
02-Nov-17 14:04 39.227001 -107.977562 257 38059ft 438kts
02-Nov-17 14:05 39.196421 -108.128920 257 38057ft 439kts
02-Nov-17 14:06 39.165540 -108.280498 257 38037ft 439kts
02-Nov-17 14:07 39.134619 -108.431311 256 38036ft 439kts
02-Nov-17 14:08 39.103434 -108.582279 257 38034ft 439kts
02-Nov-17 14:09 39.072726 -108.729825 256 38045ft 439kts
02-Nov-17 14:10 39.046627 -108.881774 260 38044ft 439kts
02-Nov-17 14:11 39.023866 -109.035486 260 38034ft 440kts
02-Nov-17 14:12 39.000784 -109.190442 260 38023ft 445kts
02-Nov-17 14:13 38.977309 -109.346277 260 38018ft 449kts
02-Nov-17 14:14 38.953536 -109.502874 260 38016ft 452kts
02-Nov-17 14:15 38.929404 -109.660185 259 38018ft 455kts
02-Nov-17 14:16 38.904916 -109.818385 259 38026ft 458kts
02-Nov-17 14:17 38.880227 -109.976336 259 38025ft 462kts
02-Nov-17 14:18 38.854874 -110.137076 259 38023ft 462kts
02-Nov-17 14:19 38.829319 -110.297562 259 38030ft 462kts
02-Nov-17 14:20 38.803517 -110.458097 259 38037ft 463kts
02-Nov-17 14:21 38.777386 -110.619154 259 38019ft 462kts
02-Nov-17 14:22 38.751465 -110.777492 258 38026ft 463kts
02-Nov-17 14:23 38.729426 -110.910990 258 38024ft 462kts
02-Nov-17 14:24 38.698333 -111.097705 258 38023ft 461kts
02-Nov-17 14:25 38.671493 -111.257216 258 38021ft 460kts
02-Nov-17 14:26 38.649024 -111.389741 258 38020ft 460kts
02-Nov-17 14:27 38.617403 -111.574646 258 38018ft 460kts
02-Nov-17 14:28 38.590174 -111.732382 258 38076ft 460kts
02-Nov-17 14:29 38.567277 -111.863994 258 38156ft 460kts
02-Nov-17 14:30 38.539468 -112.022626 258 38170ft 461kts
02-Nov-17 14:31 38.506698 -112.207831 258 38116ft 461kts
02-Nov-17 14:32 38.483048 -112.340482 258 38051ft 461kts
02-Nov-17 14:33 38.454746 -112.497768 258 38046ft 461kts
02-Nov-17 14:34 38.427735 -112.646779 258 38045ft 461kts
02-Nov-17 14:35 38.399056 -112.803823 257 38053ft 461kts
02-Nov-17 14:36 38.369967 -112.961824 257 38051ft 458kts
02-Nov-17 14:37 38.352601 -113.120476 264 38050ft 456kts
02-Nov-17 14:38 38.340455 -113.279880 264 38047ft 456kts
02-Nov-17 14:39 38.328143 -113.440139 264 38046ft 456kts
02-Nov-17 14:40 38.315671 -113.599647 264 38044ft 456kts
02-Nov-17 14:41 38.303066 -113.758010 263 38053ft 456kts
02-Nov-17 14:42 38.290149 -113.917671 263 38051ft 456kts
02-Nov-17 14:43 38.276959 -114.077829 263 38045ft 456kts
02-Nov-17 14:44 38.263662 -114.236664 263 38032ft 456kts
02-Nov-17 14:45 38.250276 -114.396642 265 38029ft 456kts
02-Nov-17 14:46 38.240645 -114.556296 265 38026ft 456kts
02-Nov-17 14:47 38.231155 -114.712482 265 39176ft 442kts
02-Nov-17 14:48 38.221477 -114.868661 265 39373ft 447kts
02-Nov-17 14:49 38.211572 -115.025567 264 39480ft 448kts
02-Nov-17 14:50 38.201566 -115.180573 264 39499ft 449kts
02-Nov-17 14:51 38.191111 -115.338176 263 39501ft 449kts
02-Nov-17 14:52 38.180536 -115.495006 263 39507ft 449kts
02-Nov-17 14:53 38.169733 -115.652164 263 39508ft 449kts
02-Nov-17 14:54 38.158725 -115.809158 263 39545ft 449kts
02-Nov-17 14:55 38.147494 -115.966381 263 39555ft 449kts
02-Nov-17 14:56 38.136071 -116.123291 263 39557ft 449kts
02-Nov-17 14:57 38.124394 -116.280762 263 39555ft 449kts
02-Nov-17 14:58 38.112530 -116.437870 263 39553ft 449kts
02-Nov-17 14:59 38.100451 -116.595009 263 39550ft 449kts
02-Nov-17 15:00 38.088306 -116.750254 262 40033ft 445kts
02-Nov-17 15:01 38.075824 -116.907218 262 40050ft 453kts
02-Nov-17 15:02 38.063071 -117.065363 261 40047ft 455kts
02-Nov-17 15:03 38.049933 -117.224410 261 40046ft 457kts
02-Nov-17 15:04 38.036564 -117.384119 261 40044ft 457kts
02-Nov-17 15:05 38.022998 -117.543569 261 40043ft 457kts
02-Nov-17 15:06 38.009376 -117.701124 261 40031ft 458kts
02-Nov-17 15:07 37.969752 -117.850884 242 39995ft 453kts
02-Nov-17 15:08 37.912332 -117.992509 242 39965ft 453kts
02-Nov-17 15:09 37.855011 -118.131674 242 39970ft 454kts
02-Nov-17 15:10 37.796817 -118.272287 242 39968ft 454kts
02-Nov-17 15:11 37.738646 -118.412225 242 40000ft 453kts
02-Nov-17 15:12 37.680067 -118.552516 242 40062ft 453kts
02-Nov-17 15:13 37.622743 -118.689163 241 40082ft 453kts
02-Nov-17 15:14 37.563810 -118.829191 241 40080ft 454kts
02-Nov-17 15:15 37.504764 -118.968831 240 40079ft 455kts
02-Nov-17 15:16 37.445275 -119.108760 240 40077ft 456kts
02-Nov-17 15:17 37.385790 -119.248109 240 40075ft 456kts
02-Nov-17 15:18 37.326001 -119.387622 240 40084ft 456kts
02-Nov-17 15:19 37.266645 -119.525555 240 35293ft 448kts
02-Nov-17 15:20 37.209670 -119.657496 239 32345ft 424kts
02-Nov-17 15:21 37.158381 -119.775706 239 30154ft 414kts
02-Nov-17 15:22 37.104295 -119.899883 238 27931ft 404kts
02-Nov-17 15:23 37.051123 -120.021507 238 25812ft 396kts
02-Nov-17 15:24 36.998790 -120.140758 237 23746ft 389kts
02-Nov-17 15:25 36.947259 -120.257731 237 21763ft 384kts
02-Nov-17 15:26 36.896307 -120.372902 237 20148ft 396kts
02-Nov-17 15:27 36.843523 -120.492022 237 20098ft 379kts
02-Nov-17 15:28 36.793740 -120.603675 238 17272ft 375kts
02-Nov-17 15:29 36.746059 -120.710512 238 15773ft 364kts
02-Nov-17 15:30 36.713819 -120.827669 261 14089ft 364kts
02-Nov-17 15:31 36.705264 -120.950881 264 12565ft 355kts
02-Nov-17 15:32 36.670569 -121.058527 233 10777ft 344kts
02-Nov-17 15:33 36.623263 -121.142037 233 10275ft 307kts
02-Nov-17 15:34 36.577298 -121.224573 233 9842ft 283kts
02-Nov-17 15:35 36.533019 -121.303045 233 8765ft 281kts
02-Nov-17 15:36 36.492939 -121.384520 262 7486ft 277kts
02-Nov-17 15:37 36.482433 -121.477713 262 6197ft 267kts
02-Nov-17 15:38 36.490742 -121.559480 294 5386ft 238kts
02-Nov-17 15:39 36.514506 -121.630285 295 4978ft 191kts
02-Nov-17 15:40 36.534816 -121.690126 294 3952ft 183kts
02-Nov-17 15:41 36.553234 -121.745405 294 3157ft 154kts
02-Nov-17 15:42 36.568916 -121.791420 293 1712ft 137kts
02-Nov-17 15:43 36.579846 -121.823422 294 653ft 123kts
02-Nov-17 15:44 36.589922 -121.853487 257 166ft 18kts

Navigation Log

Ident Type
Flight plan parsing failed, navigation log unavailable